SiktMolnbas
>≥ 10km≥ 10km ≥ 2000ft≥ 2000ft
< 10km< 10km < 2000ft< 2000ft
< 8km< 8km < 1500ft< 1500ft
< 5km< 5km < 1000ft< 1000ft
< 3km< 3km < 500ft< 500ft

Nytt 18 jan 2017:

Nytt 17 jan 2017:

ESNQ (00:20 UTC)

Kiruna flygplats

METAR

SN

ESNQ 010020Z AUTO 36010KT 2500 -SN SCT011/// BKN026/// BKN032/// M06/M07 Q0991=

TAF

Ingen TAF hittades.

ESNG (00:20 UTC)

Gällivare (Kavaheden), Lapland Airport

METAR

SN

ESNG 010020Z AUTO 33017KT 9999 -SN FEW010/// SCT084/// M03/M06 Q0990 RESHUP RESN=

TAF

Ingen TAF hittades.

ESPA (00:20 UTC)

Luleå Airport (Kallax)

METAR

ESPA 010020Z AUTO 33010KT 9999 BKN110/// M00/M04 Q0989=

TAF

Ingen TAF hittades.

ESNL (00:20 UTC)

Lycksele flygplats

METAR

ESNL 010020Z AUTO 30019KT 9999 NCD 02/M05 Q0994=

TAF

Ingen TAF hittades.

ESNU (00:20 UTC)

Umeå City Airport

METAR

ESNU 010020Z AUTO 29019KT 9999 NCD 03/M03 Q0993 RWY 14 CLEAR AND DRY 51-100 PCT BA GOOD=

TAF

ESNU 312330Z 0100/0109 30017G27KT CAVOK=

ESNO (00:20 UTC)

Örnsköldsvik flygplats

METAR

ESNO 010020Z AUTO 29016KT 9999 NCD 01/M05 Q0995=

TAF

Ingen TAF hittades.

ESNK (00:20 UTC)

Kramfors-Sollefteå flygplats

METAR

ESNK 010020Z AUTO 30012KT 9999 NCD 03/M05 Q0999=

TAF

Ingen TAF hittades.

ESNN (00:20 UTC)

Sundsvall-Härnösands flygplats (Midlanda)

METAR

ESNN 010020Z AUTO 27011KT 250V310 9999 FEW044/// 03/M05 Q1001=

TAF

Ingen TAF hittades.

ESNZ (00:20 UTC)

Åre Östersund Airport (Frösön)

METAR

ESNZ 010020Z AUTO 30017KT 9999 SCT027/// M00/M04 Q1002=

TAF

TCU

ESNZ 311730Z 3118/3122 30028G40KT CAVOK TEMPO 3118/3122 BKN020TCU BECMG 3118/3120 30015G25KT=

ESNS (00:20 UTC)

Skellefteå flygplats

METAR

ESNS 010020Z AUTO 28010KT 9999 FEW057/// OVC082/// 03/M03 Q0991=

TAF

Ingen TAF hittades.

ESGT (00:20 UTC)

Trollhättan-Vänersborgs flygplats (Malöga flygplats)

METAR

ESGT 010020Z AUTO 18004KT 9999 NCD 00/M01 Q1012=

TAF

Ingen TAF hittades.

ESGG (00:20 UTC)

Göteborg-Landvetter flygplats

METAR

ESGG 010020Z 24009KT 9999 OVC007 03/02 Q1012 RWY 21 CLEAR AND DRY 51-100 PCT BA GOOD=

TAF

ESGG 312330Z 0100/0124 25010KT 9999 OVC007 PROB40 0100/0108 SCT010 BECMG 0108/0110 SCT015 BECMG 0110/0112 27015G25KT PROB40 0118/0124 BKN013=

ESMT (00:20 UTC)

Halmstads flygplats

METAR

ESMT 010020Z AUTO 27015KT 9999 FEW024/// SCT029/// OVC037/// 05/03 Q1015=

TAF

Ingen TAF hittades.

ESTA (00:20 UTC)

Ängelholm-Helsingborg flygplats

METAR

ESTA 010020Z AUTO 28015KT 9999 SCT008/// OVC027/// 05/04 Q1016=

TAF

Ingen TAF hittades.

ESTL (00:20 UTC)

Ljungbyheds flygplats

METAR

DZ

ESTL 010020Z AUTO 26014KT 7000 DZ FEW011/// SCT019/// BKN034/// 04/04 Q1016=

TAF

Ingen TAF hittades.

ESMS (00:20 UTC)

Malmö Airport

METAR

ESMS 010020Z 26016KT 9999 OVC010 04/02 Q1018 RWY 17 CLEAR AND DRY 51-100 PCT BA GOOD=

TAF

TCU

ESMS 312301Z 0100/0124 27015KT 9999 BKN020 TEMPO 0100/0109 BKN008 SCT020TCU TEMPO 0109/0124 BKN012 SCT020TCU=

ESMK (00:20 UTC)

Kristianstad Airport

METAR

ESMK 010020Z AUTO 26012KT 9999 SCT016/// OVC038/// 04/02 Q1016=

TAF

Ingen TAF hittades.

ESDF (00:20 UTC)

Ronneby flygplats

METAR

ESDF 010020Z AUTO 26008KT 220V290 9999 BKN014/// OVC047/// 04/03 Q1015=

TAF

Ingen TAF hittades.

ESMQ (00:20 UTC)

Kalmar Airport

METAR

ESMQ 010020Z AUTO 25011KT 9999 BKN019/// 05/02 Q1013=

TAF

Ingen TAF hittades.

ESMX (00:20 UTC)

Växjö, Smaland Airport

METAR

ESMX 010020Z AUTO 26010KT 230V290 9999 OVC007/// 04/03 Q1013=

TAF

Ingen TAF hittades.

ESGJ (00:20 UTC)

Jönköping Airport

METAR

ESGJ 010020Z AUTO 24010KT 9999 NCD 02/01 Q1011=

TAF

ESGJ 312030Z 3121/0101 23008KT 9999 SCT008 BKN020 TEMPO 3121/0101 BKN008=

ESSA (00:20 UTC)

Stockholm-Arlanda flygplats

METAR

ESSA 010020Z 26007KT CAVOK 04/M03 Q1005 RWY 01L DAMP 51-100 PCT BA GOOD RWY 01R DAMP 51-100 PCT BA GOOD RWY 08 DAMP 51-100 PCT BA GOOD NOSIG=

TAF

ESSA 312330Z 0100/0124 27005KT CAVOK TEMPO 0108/0115 28015G25KT=

ESSB (00:20 UTC)

Stockholm-Bromma flygplats

METAR

ESSB 010020Z AUTO 25008KT 9999 NCD 05/M00 Q1006=

TAF

Ingen TAF hittades.

ESKN (00:20 UTC)

Stockholm-Skavsta flygplats

METAR

ESKN 010020Z 27012KT CAVOK 03/00 Q1007 RWY 26 CLEAR AND DRY BA GOOD=

TAF

ESKN 312330Z 0100/0124 27012KT CAVOK=

ESSP (00:20 UTC)

Norrköping flygplats

METAR

ESSP 010020Z AUTO 27010KT 9999 NCD 04/01 Q1008=

TAF

Ingen TAF hittades.

ESSL (00:20 UTC)

Linköping - SAAB Flygplats

METAR

ESSL 010020Z AUTO 27009KT 9999 NCD 04/01 Q1009=

TAF

ESSL 311730Z 3118/3122 25010KT CAVOK=

ESSV (00:20 UTC)

Visby flygplats

METAR

ESSV 010020Z AUTO 24011KT 9999 NCD 03/02 Q1009=

TAF

ESSV 311730Z 3118/3122 25017KT CAVOK=

ESOW (00:20 UTC)

Stockholm-Västerås flygplats

METAR

ESOW 010020Z AUTO 25006KT 9999 SCT160/// 04/M02 Q1007=

TAF

Ingen TAF hittades.

ESOE (00:20 UTC)

Örebro flygplats

METAR

ESOE 010020Z AUTO 22007KT 9999 NCD 04/01 Q1008=

TAF

ESOE 010030Z 0101/0108 25006KT CAVOK=

ESOK (00:20 UTC)

Karlstad Airport

METAR

ESOK 010020Z AUTO 29003KT 9999 NCD 03/M02 Q1009=

TAF

Ingen TAF hittades.

ESSD (00:20 UTC)

Borlänge, Dala Airport

METAR

ESSD 010020Z AUTO 32010KT 9999 NCD 04/M03 Q1006=

TAF

Ingen TAF hittades.

ESGR (00:20 UTC)

Skövde flygplats

METAR

ESGR 010020Z AUTO 24006KT 210V290 9999 NCD 04/01 Q1010=

TAF

Ingen TAF hittades.

ESIB (00:20 UTC)

Såtenäs

METAR

ESIB 010020Z AUTO 22008KT 9999 NCD 02/02 Q1011=

TAF

Ingen TAF hittades.

ESNV (00:20 UTC)

Vilhelmina flygplats

METAR

ESNV 010020Z AUTO 31009KT 9999 NCD ///// Q0996=

TAF

Ingen TAF hittades.

ESST (00:20 UTC)

Torsby flygplats (Fryklanda)

METAR

ESST 010020Z AUTO 27005KT 240V300 9999 NCD 04/M02 Q1008=

TAF

Ingen TAF hittades.

ESUT (00:20 UTC)

Hemavans flygplats

METAR

ESUT 010020Z AUTO 30010KT 9999 SCT033/// BKN039/// BKN055/// M02/M07 Q0997=

TAF

Ingen TAF hittades.

ESNX (00:20 UTC)

Arvidsjaur flygplats

METAR

ESNX 010020Z AUTO 29023KT 9999 BKN078/// M01/M06 Q0991=

TAF

Ingen TAF hittades.

ESIA (00:20 UTC)

Karlsborg

METAR

ESIA 010020Z AUTO 26009KT 9999 NCD 02/00 Q1010=

TAF

Ingen TAF hittades.

ESUP (00:20 UTC)

Pajala

METAR

ESUP 010020Z AUTO 36009KT 320V040 //// R11///// SCT020/// BKN043/// M02/M07 Q0989=

TAF

Ingen TAF hittades.

ESPE (00:20 UTC)

Vidsel

METAR

ESPE 010020Z AUTO 32011KT 9999 BKN033/// OVC042/// 02/M03 Q0991=

TAF

Ingen TAF hittades.

ESCM (00:20 UTC)

Uppsala

METAR

ESCM 010020Z AUTO 31010KT 9999 NCD 05/M03 Q1005=

TAF

Ingen TAF hittades.

ESKM (00:20 UTC)

Mora/Siljan

METAR

ESKM 010020Z AUTO 30007KT 9999 NCD 03/M03 Q1007=

TAF

Ingen TAF hittades.

EKRN (00:20 UTC)

Bornholm Airport

METAR

EKRN 010020Z AUTO 27022KT 9999 FEW020/// OVC033/// 05/02 Q1018=

TAF

EKRN 311723Z 3118/3122 26020KT 9999 SCT040=

EFIV (00:20 UTC)

Ivalo Airport

METAR

SN

EFIV 010020Z AUTO 01009KT 9999 -SN OVC010 M07/M09 Q0989=

TAF

Ingen TAF hittades.

EFKT (00:20 UTC)

Kittilä Airport

METAR

SHSN

EFKT 010020Z AUTO 01012KT 330V030 9999 -SHSN OVC012 M06/M08 Q0988=

TAF

Ingen TAF hittades.

EFRO (00:20 UTC)

Rovaniemi Airport

METAR

EFRO 010020Z AUTO 33007KT CAVOK M02/M06 Q0986=

TAF

SHSNBRTCU

EFRO 312328Z 0100/0124 26008KT CAVOK TEMPO 0102/0106 2500 BR BKN005 BECMG 0106/0108 36012KT PROB40 0112/0116 4000 -SHSN SCT040TCU=

EFKE (00:20 UTC)

Kemi-Tornio Airport

METAR

EFKE 010020Z AUTO 29005KT CAVOK M03/M05 Q0988=

TAF

Ingen TAF hittades.

EFKS (00:20 UTC)

Kuusamo Airport

METAR

SHSN

EFKS 010020Z AUTO 26004KT 230V290 9999 -SHSN FEW021 BKN046 M03/M03 Q0985=

TAF

Ingen TAF hittades.

EFOU (00:20 UTC)

Oulu Airport

METAR

EFOU 010020Z AUTO 28009KT 9999 FEW003 OVC033 M00/M01 Q0988=

TAF

SN

EFOU 312328Z 0100/0124 26009KT CAVOK PROB30 0101/0115 4000 -SN BECMG 0103/0105 32012KT=

EFKI (00:20 UTC)

Kajaani Airport

METAR

EFKI 010020Z AUTO 25009KT CAVOK M01/M04 Q0988=

TAF

Ingen TAF hittades.

EFKK (00:20 UTC)

Kokkola-Pietarsaari/Kruunupyy Airport

METAR

RA

EFKK 010020Z AUTO 25010KT 220V300 9999 -RA SCT034 BKN062 02/M04 Q0991=

TAF

Ingen TAF hittades.

EFVA (00:20 UTC)

Vaasa Airport

METAR

EFVA 010020Z AUTO 27015KT 9999 FEW045 BKN068 02/M04 Q0994=

TAF

SHSNTCU

EFVA 312330Z 0100/0124 28012KT CAVOK PROB30 TEMPO 0100/0106 4000 -SHSN SCT020TCU PROB30 0100/0110 30015G25KT BECMG 0114/0116 34005KT=

EFKU (00:20 UTC)

Kuopio Airport

METAR

SHSN

EFKU 010020Z AUTO 25011KT 9999 -SHSN FEW034 SCT051 BKN076 M00/M01 Q0991 REFZRA=

TAF

SHSNTCU

EFKU 312328Z 0100/0124 25012KT CAVOK TEMPO 0105/0107 3000 -SN BKN012 TEMPO 0107/0118 4000 -SHSN SCT020TCU=

EFJY (00:20 UTC)

Jyväskylä Airport

METAR

EFJY 010020Z AUTO 26007KT CAVOK M01/M03 Q0993=

TAF

SHSNCB

EFJY 312330Z 0100/0124 24007KT CAVOK BECMG 0106/0108 30012KT TEMPO 0108/0114 30015G25KT 2500 SHSN BKN020CB BECMG 0119/0121 30002KT=

EFTP (00:20 UTC)

Tampere-Pirkkala Airport

METAR

EFTP 010020Z AUTO 26007KT CAVOK M00/M02 Q0997=

TAF

EFTP 312330Z 0100/0124 24009KT CAVOK BECMG 0106/0108 30012G24KT BECMG 0118/0120 24005KT=

EFPO (00:20 UTC)

Pori Airport

METAR

EFPO 010020Z AUTO 29011KT CAVOK 02/M04 Q0999=

TAF

Ingen TAF hittades.

EFTU (00:20 UTC)

Turku Airport

METAR

EFTU 010020Z AUTO 29006KT 270V330 CAVOK 02/M04 Q1000=

TAF

RA

EFTU 312326Z 0100/0124 30008KT CAVOK BECMG 0121/0123 4000 -RADZ BKN010=

EFHK (00:20 UTC)

Helsinki-Vantaa Airport

METAR

EFHK 010020Z 22006KT 9999 FEW011 01/M01 Q0998 NOSIG=

TAF

Ingen TAF hittades.

EFMA (00:20 UTC)

Mariehamn Airport

METAR

EFMA 010020Z AUTO 31010KT 280V340 CAVOK 04/M01 Q1003=

TAF

EFMA 312326Z 0100/0109 31012KT CAVOK TEMPO 0100/0109 31015G25KT=

EKSP (00:20 UTC)

Vojens Airport

METAR

EKSP 010020Z 26013KT 9999 SCT010 SCT015 BKN024 05/04 Q1021=

TAF

SHRATCU

EKSP 312319Z 0100/0124 28012KT 9999 BKN030 TEMPO 0100/0109 7000 -SHRA SCT008 BKN012TCU TEMPO 0109/0116 28012G25KT 7000 -SHRA SCT012 BKN020TCU TEMPO 0116/0124 7000 -SHRA SCT008 BKN012TCU=

EKEB (00:20 UTC)

Esbjerg Airport

METAR

EKEB 010020Z AUTO 27009KT 9999 SCT011/// BKN038/// 05/04 Q1021=

TAF

TCU

EKEB 311723Z 3118/3122 26012KT 9999 BKN018 TEMPO 3118/3120 BKN012 SCT018TCU TEMPO 3120/3122 BKN008 SCT018TCU=

EKYT (00:20 UTC)

Aalborg Airport

METAR

EKYT 010020Z AUTO 27013KT 9999 FEW016/// BKN019/// 05/03 Q1016=

TAF

SHRATCU

EKYT 312319Z 0100/0124 27015KT 9999 SCT030 TEMPO 0100/0109 7000 -SHRA SCT020TCU TEMPO 0109/0116 28020G30KT 7000 -SHRA SCT020TCU TEMPO 0116/0124 7000 -SHRA SCT008 BKN012TCU=

EKKA (00:20 UTC)

Karup Airport

METAR

RA

EKKA 010020Z AUTO 26012KT 9999 -RA BKN013/// BKN047/// 05/03 Q1018=

TAF

SHRATCU

EKKA 312319Z 0100/0124 27012KT 9999 BKN030 TEMPO 0100/0109 7000 -SHRA SCT008 BKN012TCU TEMPO 0109/0116 27012G25KT 7000 -SHRA SCT012 BKN020TCU TEMPO 0116/0124 7000 -SHRA SCT008 BKN012TCU=

EKBI (00:20 UTC)

Billund Airport

METAR

EKBI 010020Z AUTO 27011KT 9999 FEW013/// SCT029/// 04/02 Q1020=

TAF

Ingen TAF hittades.

EKVD (00:20 UTC)

Kolding Airport

METAR

EKVD 010020Z AUTO 27011KT //// ///////// 05/04 Q1020=

TAF

Ingen TAF hittades.

EKCH (00:20 UTC)

Copenhagen Airport, Kastrup

METAR

SHRATCU

EKCH 010020Z 26011KT 9999 -SHRA BKN012 SCT016TCU 04/03 Q1018 TEMPO BKN020=

TAF

TCU

EKCH 312301Z 0100/0124 27015KT 9999 BKN018 TEMPO 0100/0124 BKN012 SCT018TCU=

EKRK (00:20 UTC)

Copenhagen Airport, Roskilde

METAR

RA

EKRK 010020Z AUTO 26012KT 9999 -RA OVC009/// 04/03 Q1018=

TAF

TCU

EKRK 312321Z 0100/0109 27015KT 9999 BKN020 TEMPO 0100/0109 BKN008 SCT018TCU=

ENRY (00:20 UTC)

Moss flygplats, Rygge

METAR

ENRY 010020Z AUTO 24005KT 9999NDV NCD 05/M02 Q1011=

TAF

ENRY 312300Z 0100/0124 24008KT CAVOK=

ENGM (00:20 UTC)

Oslo flygplats, Gardermoen

METAR

ENGM 010020Z VRB04KT CAVOK 05/M03 Q1009=

TAF

ENGM 312300Z 0100/0124 VRB05KT CAVOK BECMG 0108/0110 20010KT=

ENTO (00:20 UTC)

Sandefjord flygplats, Torp

METAR

ENTO 010020Z AUTO 26007KT 9999 NCD 05/M03 Q1011=

TAF

ENTO 312300Z 0100/0124 24008KT CAVOK=

ENCN (00:20 UTC)

Kristiansand flygplats, Kjevik

METAR

ENCN 010020Z AUTO 29008KT 260V320 9999 NCD 05/M00 Q1014=

TAF

Ingen TAF hittades.

ENZV (00:20 UTC)

Stavanger-Sola flygplats

METAR

ENZV 010020Z 30009KT 9999 FEW011 BKN048 06/05 Q1017=

TAF

SHRATCU

ENZV 312300Z 0100/0124 27012KT 9999 -SHRA SCT012TCU BKN025 PROB40 TEMPO 0100/0110 BKN008 TEMPO 0110/0117 4000 RADZ BKN008 TEMPO 0111/0119 27015G25KT=

ENHD (00:20 UTC)

Haugesund flygplats, Karmøy

METAR

ENHD 010020Z AUTO 26012KT 9999 SCT020/// BKN031/// BKN045/// 06/04 Q1016=

TAF

Ingen TAF hittades.

ENBR (00:20 UTC)

Bergen flygplats, Flesland

METAR

ENBR 010020Z 22004KT 9999 FEW007 SCT041 BKN055 05/04 Q1015 RMK WIND 1200FT 26010KT=

TAF

SHRACB

ENBR 312300Z 0100/0124 26008KT 9999 FEW008 BKN025 TEMPO 0100/0103 SHRA BKN012CB TEMPO 0103/0114 4000 RADZ BKN008 TEMPO 0105/0115 26015G25KT=

ENML (00:20 UTC)

Molde flygplats, Årø

METAR

RA

ENML 010020Z AUTO 28004KT 250V310 9999NDV RA OVC019/// 02/01 Q1010=

TAF

Ingen TAF hittades.

ENKB (00:20 UTC)

Kristiansund flygplats, Kvernberget

METAR

RA

ENKB 010020Z AUTO 23007KT 190V270 9000 -RA BKN008/// BKN015/// OVC019/// 03/01 Q1009 REDZ RMK WIND 745FT 25014KT=

TAF

SHRA

ENKB 311700Z 3118/3122 27018KT 9999 -SHRA FEW012 BKN025 PROB30 TEMPO 3118/3122 SHRA BKN012=

ENRO (00:20 UTC)

Røros flygplats

METAR

ENRO 010020Z AUTO 31008KT 280V340 9999NDV SCT024/// BKN034/// OVC078/// M01/M04 Q1006=

TAF

Ingen TAF hittades.

ENVA (00:20 UTC)

Trondheim flygplats, Værnes

METAR

ENVA 010020Z AUTO 27020KT 9999 BKN025/// BKN041/// OVC049/// 03/M00 Q1008 RMK WIND 670FT 28018KT=

TAF

SHRACB

ENVA 312300Z 0100/0124 28012KT 9999 FEW020 BKN040 BECMG 0102/0105 12008KT TEMPO 0105/0111 1200 SNRA VV008 BECMG 0110/0113 26012KT TEMPO 0111/0121 26015G25KT 4000 SHRA BKN012CB TEMPO 0121/0124 26015G25KT 2000 SHSNRA VV009=

ENOL (23:50 UTC)

Ørland flygplats

METAR

ENOL 312350Z 28017KT 9999 FEW020 SCT025 BKN045 04/M00 Q1009=

TAF

SHRACBTCU

ENOL 312300Z 0100/0124 26015KT 9999 FEW012 BKN025 BECMG 0104/0107 15015KT 4000 -SNRA BKN014 TEMPO 0105/0111 1000 SNRA VV006 BECMG 0110/0112 25020KT 9999 -SHRA BKN018 TEMPO 0111/0115 25025G35KT 4000 SHRA BKN008 SCT012CB TEMPO 0115/0124 26028G38KT SHRA BKN014TCU=

ENBN (00:20 UTC)

Brønnøysund flygplats, Brønnøy

METAR

ENBN 010020Z 32008KT 290V350 9999 SCT034 BKN110 04/M01 Q1004=

TAF

TCU

ENBN 312300Z 0100/0109 32009KT 9999 FEW015TCU SCT050=

ENRA (00:20 UTC)

Mo i Rana flygplats, Røssvoll

METAR

SHSN

ENRA 010020Z 31012KT 9999 -SHSN FEW040 SCT060 00/M04 Q1000=

TAF

Ingen TAF hittades.

ENBO (23:50 UTC)

Bodö flygplats

METAR

SHRACB

ENBO 312350Z 32017KT 9999 VCSH FEW015CB SCT050 02/M03 Q1000=

TAF

SHSNCB

ENBO 312300Z 0100/0124 34015KT 9999 FEW012CB BKN025 TEMPO 0100/0106 2000 SHSNRAGS VV010 TEMPO 0100/0103 34020G30KT BECMG 0105/0107 09008KT SCT030 BECMG 0117/0119 09018KT=

ENAN (00:20 UTC)

Andøya flygplats

METAR

ENAN 010020Z AUTO 03018KT 9999 FEW002/// SCT009/// BKN078/// M01/M03 Q0999 RESHSN=

TAF

Ingen TAF hittades.

ENEV (00:20 UTC)

Harstad-Narvik flygplats

METAR

ENEV 010020Z AUTO 35011KT 9999 FEW004/// SCT009/// M01/M03 Q0998 REFZUP RMK WIND 1400FT 33026KT=

TAF

Ingen TAF hittades.

ENDU (00:20 UTC)

Bardufoss flygplats

METAR

ENDU 010020Z AUTO 29009KT 9999 FEW035/// SCT045/// M07/M10 Q0996 RMK WIND 1100FT 32012KT WIND 2200FT 36023KT=

TAF

SHSN

ENDU 312300Z 0100/0124 29008KT 9999 -SHSN FEW020 BKN035=

ENTC (00:20 UTC)

Tromsø flygplats

METAR

ENTC 010020Z 04006KT 9999 FEW058 M03/M07 Q0997 RMK WIND 2600FT /////KT=

TAF

SHSN

ENTC 312300Z 0100/0124 01008KT 9999 -SHSN FEW035 PROB30 TEMPO 0109/0124 2000 SHSN VV009=

ENAT (00:20 UTC)

Alta flygplats

METAR

ENAT 010020Z 03010KT CAVOK M05/M08 Q0995 RMK WIND 700FT 01022KT=

TAF

SN

ENAT 311700Z 3118/3122 08009KT 9999 FEW012 BKN025 TEMPO 3118/3120 2500 -SN VV009 BECMG 3120/3122 35010KT=

ENNA (00:20 UTC)

Lakselv flygplats

METAR

ENNA 010020Z AUTO 36013KT 9999 NCD M07/M10 Q0994 RMK WIND 1800FT 05019KT=

TAF

SHSN

ENNA 312300Z 0100/0124 02009KT 9999 FEW012 SCT035 PROB30 TEMPO 0100/0118 2000 SHSN VV009=

ENHF (00:20 UTC)

Hammerfest flygplats

METAR

SN

ENHF 010020Z 05006KT 9999 -SN FEW013 SCT020 BKN032 M04/M06 Q0995 RMK WIND 1254FT 06017KT=

TAF

SHSNTCU

ENHF 312300Z 0100/0109 06015KT 9999 FEW020TCU BKN035 TEMPO 0100/0109 36012KT 1000 SHSN VV008=

ENKR (00:20 UTC)

Kirkenes Airport, Høybuktmoen

METAR

SN

ENKR 010020Z 04007KT 9999 -SN FEW010 SCT030 M07/M08 Q0990 RMK WIND 731FT 04011KT=

TAF

SN

ENKR 312300Z 0100/0109 07009KT 9999 -SN FEW010 BKN035 TEMPO 0100/0109 4000 -SN VV014=

ENSB (23:50 UTC)

Svalbard Airport, Longyear

METAR

ENSB 312350Z VRB01KT 9999 FEW015 M20/M22 Q1011 RMK WIND 1400FT 20003KT=

TAF

SHSN

ENSB 312300Z 0100/0124 12008KT 9999 FEW015 BECMG 0110/0113 33015KT TEMPO 0115/0122 30025G35KT PROB40 TEMPO 0115/0121 -SHSN VV012=